createdAt,value
2018-12-04T00:00:54.401Z,6.50
2018-12-04T00:03:25.115Z,6.40
2018-12-04T00:08:29.762Z,6.30
2018-12-04T00:11:00.580Z,6.20
2018-12-04T00:13:30.576Z,6.10
2018-12-04T00:16:00.414Z,6.10
2018-12-04T00:18:30.505Z,5.90
2018-12-04T00:21:00.369Z,5.90
2018-12-04T00:23:31.329Z,5.80
2018-12-04T00:26:02.305Z,5.70
2018-12-04T00:28:32.109Z,5.60
2018-12-04T00:31:01.779Z,5.50
2018-12-04T00:33:32.588Z,5.40
2018-12-04T00:36:02.234Z,5.40
2018-12-04T00:38:32.481Z,5.30
2018-12-04T00:41:01.796Z,5.30
2018-12-04T00:43:32.171Z,5.20
2018-12-04T00:46:02.630Z,5.10
2018-12-04T00:48:33.190Z,5.10
2018-12-04T00:51:04.235Z,5.00
2018-12-04T00:53:34.228Z,5.00
2018-12-04T00:56:04.138Z,4.90
2018-12-04T00:58:34.136Z,4.90
2018-12-04T01:01:04.609Z,4.80
2018-12-04T01:03:34.134Z,4.80
2018-12-04T01:06:04.641Z,4.70
2018-12-04T01:08:34.909Z,4.70
2018-12-04T01:11:04.422Z,4.60
2018-12-04T01:13:34.990Z,4.60
2018-12-04T01:16:04.528Z,4.60
2018-12-04T01:18:34.305Z,4.60
2018-12-04T01:21:04.051Z,4.60
2018-12-04T01:23:33.576Z,4.60
2018-12-04T01:26:03.220Z,4.60
2018-12-04T01:28:32.908Z,4.60
2018-12-04T01:31:04.499Z,4.50
2018-12-04T01:33:34.158Z,4.50
2018-12-04T01:36:03.977Z,4.40
2018-12-04T01:38:41.491Z,4.40
2018-12-04T01:41:11.055Z,4.40
2018-12-04T01:43:45.258Z,4.40
2018-12-04T01:46:15.115Z,4.30
2018-12-04T01:48:44.767Z,4.30
2018-12-04T01:51:14.441Z,4.20
2018-12-04T01:53:44.143Z,4.10
2018-12-04T01:56:13.738Z,4.10
2018-12-04T01:58:43.222Z,4.10
2018-12-04T02:01:13.169Z,4.10
2018-12-04T02:03:42.893Z,4.10
2018-12-04T02:06:12.574Z,4.10
2018-12-04T02:08:42.847Z,4.00
2018-12-04T02:11:14.228Z,4.00
2018-12-04T02:13:46.512Z,4.00
2018-12-04T02:16:17.369Z,4.00
2018-12-04T02:18:46.942Z,4.00
2018-12-04T02:21:16.543Z,4.00
2018-12-04T02:23:46.904Z,4.00
2018-12-04T02:26:16.372Z,3.90
2018-12-04T02:28:45.789Z,3.90
2018-12-04T02:31:15.665Z,3.90
2018-12-04T02:33:45.322Z,3.80
2018-12-04T02:36:15.308Z,3.80
2018-12-04T02:38:45.016Z,3.70
2018-12-04T02:41:14.390Z,3.70
2018-12-04T02:43:44.185Z,3.70
2018-12-04T02:46:13.847Z,3.60
2018-12-04T02:48:43.354Z,3.60
2018-12-04T02:51:12.919Z,3.60
2018-12-04T02:53:42.635Z,3.50
2018-12-04T02:56:12.045Z,3.50
2018-12-04T02:58:41.762Z,3.50
2018-12-04T03:01:11.508Z,3.40
2018-12-04T03:03:41.159Z,3.40
2018-12-04T03:06:11.941Z,3.40
2018-12-04T03:08:41.800Z,3.30
2018-12-04T03:11:11.440Z,3.30
2018-12-04T03:13:40.702Z,3.30
2018-12-04T03:16:10.082Z,3.20
2018-12-04T03:18:39.241Z,3.20
2018-12-04T03:21:08.919Z,3.20
2018-12-04T03:23:38.742Z,3.10
2018-12-04T03:26:08.646Z,3.10
2018-12-04T03:28:39.111Z,3.00
2018-12-04T03:31:10.061Z,3.00
2018-12-04T03:33:39.789Z,3.00
2018-12-04T03:36:09.631Z,2.90
2018-12-04T03:38:41.326Z,2.90
2018-12-04T03:41:11.138Z,2.90
2018-12-04T03:43:41.205Z,2.80
2018-12-04T03:46:11.588Z,2.80
2018-12-04T03:48:41.272Z,2.80
2018-12-04T03:51:10.793Z,2.80
2018-12-04T03:53:41.230Z,2.80
2018-12-04T03:56:12.386Z,2.70
2018-12-04T03:58:41.925Z,2.80
2018-12-04T04:01:11.649Z,2.70
2018-12-04T04:03:41.117Z,2.70
2018-12-04T04:06:11.718Z,2.70
2018-12-04T04:08:41.841Z,2.70
2018-12-04T04:11:14.191Z,2.70
2018-12-04T04:13:43.907Z,2.60
2018-12-04T04:16:13.637Z,2.60
2018-12-04T04:18:43.582Z,2.60
2018-12-04T04:21:13.089Z,2.60
2018-12-04T04:23:42.703Z,2.60
2018-12-04T04:26:12.523Z,2.60
2018-12-04T04:28:42.305Z,2.60
2018-12-04T04:31:12.127Z,2.50
2018-12-04T04:33:42.155Z,2.50
2018-12-04T04:36:11.847Z,2.50
2018-12-04T04:38:41.571Z,2.40
2018-12-04T04:41:11.234Z,2.40
2018-12-04T04:43:41.667Z,2.40
2018-12-04T04:46:12.387Z,2.40
2018-12-04T04:48:42.391Z,2.30
2018-12-04T04:51:11.856Z,2.30
2018-12-04T04:53:41.486Z,2.30
2018-12-04T04:56:10.924Z,2.20
2018-12-04T04:58:40.882Z,2.20
2018-12-04T05:01:10.455Z,2.20
2018-12-04T05:03:39.522Z,2.10
2018-12-04T05:06:09.511Z,2.20
2018-12-04T05:08:39.547Z,2.20
2018-12-04T05:11:09.058Z,2.10
2018-12-04T05:13:38.805Z,2.20
2018-12-04T05:16:08.732Z,2.10
2018-12-04T05:18:38.211Z,2.10
2018-12-04T05:21:08.923Z,2.00
2018-12-04T05:23:37.815Z,2.00
2018-12-04T05:26:07.291Z,2.00
2018-12-04T05:28:37.063Z,1.90
2018-12-04T05:31:07.401Z,1.90
2018-12-04T05:33:37.020Z,1.90
2018-12-04T05:36:06.951Z,1.90
2018-12-04T05:38:36.660Z,1.90
2018-12-04T05:41:06.155Z,1.90
2018-12-04T05:43:36.651Z,1.90
2018-12-04T05:46:06.262Z,1.80
2018-12-04T05:48:36.755Z,1.80
2018-12-04T05:51:06.123Z,1.80
2018-12-04T05:53:35.403Z,1.80
2018-12-04T05:56:05.274Z,1.80
2018-12-04T05:58:35.280Z,1.80
2018-12-04T06:01:05.058Z,1.80
2018-12-04T06:03:34.579Z,1.80
2018-12-04T06:06:05.702Z,1.70
2018-12-04T06:08:35.269Z,1.70
2018-12-04T06:11:04.966Z,1.80
2018-12-04T06:13:34.607Z,1.70
2018-12-04T06:16:04.684Z,1.70
2018-12-04T06:18:34.037Z,1.70
2018-12-04T06:21:04.511Z,1.70
2018-12-04T06:23:34.056Z,1.70
2018-12-04T06:26:04.130Z,1.70
2018-12-04T06:28:34.343Z,1.70
2018-12-04T06:31:03.904Z,1.60
2018-12-04T06:33:33.865Z,1.60
2018-12-04T06:36:03.565Z,1.60
2018-12-04T06:38:33.744Z,1.60
2018-12-04T06:41:03.741Z,1.60
2018-12-04T06:43:33.333Z,1.60
2018-12-04T06:46:03.239Z,1.50
2018-12-04T06:48:32.816Z,1.50
2018-12-04T06:51:04.979Z,1.50
2018-12-04T06:56:17.566Z,1.50
2018-12-04T06:58:47.373Z,1.50
2018-12-04T07:01:19.237Z,1.50
2018-12-04T07:03:49.336Z,1.50
2018-12-04T07:06:19.047Z,1.50
2018-12-04T07:08:48.726Z,1.40
2018-12-04T07:11:19.544Z,1.40
2018-12-04T07:13:48.978Z,1.40
2018-12-04T07:16:18.400Z,1.40
2018-12-04T07:18:47.855Z,1.40
2018-12-04T07:21:17.432Z,1.40
2018-12-04T07:23:47.213Z,1.40
2018-12-04T07:26:16.946Z,1.40
2018-12-04T07:28:46.964Z,1.40
2018-12-04T07:31:17.699Z,1.40
2018-12-04T07:33:47.454Z,1.30
2018-12-04T07:36:17.408Z,1.30
2018-12-04T07:38:46.961Z,1.30
2018-12-04T07:41:16.553Z,1.30
2018-12-04T07:43:46.118Z,1.30
2018-12-04T07:46:15.933Z,1.30
2018-12-04T07:48:45.658Z,1.30
2018-12-04T07:51:15.380Z,1.30
2018-12-04T07:53:45.076Z,1.20
2018-12-04T07:56:16.457Z,1.20
2018-12-04T07:58:46.680Z,1.20
2018-12-04T08:01:16.477Z,1.20
2018-12-04T08:03:46.285Z,1.20
2018-12-04T08:06:15.765Z,1.20
2018-12-04T08:08:46.103Z,1.20
2018-12-04T08:11:15.615Z,1.20
2018-12-04T08:13:45.279Z,1.10
2018-12-04T08:16:15.542Z,1.10
2018-12-04T08:18:45.216Z,1.10
2018-12-04T08:21:16.009Z,1.10
2018-12-04T08:23:45.743Z,1.10
2018-12-04T08:26:15.531Z,1.10
2018-12-04T08:28:45.453Z,1.10
2018-12-04T08:31:15.061Z,1.10
2018-12-04T08:33:45.692Z,1.00
2018-12-04T08:36:15.724Z,1.00
2018-12-04T08:38:45.359Z,1.00
2018-12-04T08:41:15.605Z,1.00
2018-12-04T08:43:45.052Z,1.00
2018-12-04T08:46:14.659Z,1.00
2018-12-04T08:48:44.381Z,1.00
2018-12-04T08:51:14.080Z,1.00
2018-12-04T08:53:43.557Z,1.00
2018-12-04T08:56:13.082Z,1.00
2018-12-04T08:58:42.815Z,1.00
2018-12-04T09:01:12.540Z,0.90
2018-12-04T09:03:42.340Z,0.90
2018-12-04T09:06:12.203Z,0.90
2018-12-04T09:08:41.733Z,0.90
2018-12-04T09:11:11.197Z,0.90
2018-12-04T09:13:40.921Z,0.90
2018-12-04T09:16:10.337Z,0.80
2018-12-04T09:18:39.929Z,0.80
2018-12-04T09:21:10.067Z,0.80
2018-12-04T09:23:40.095Z,0.80
2018-12-04T09:26:09.552Z,0.70
2018-12-04T09:28:39.466Z,0.70
2018-12-04T09:31:10.390Z,0.60
2018-12-04T09:33:40.009Z,0.60
2018-12-04T09:36:09.474Z,0.60
2018-12-04T09:38:38.969Z,0.70
2018-12-04T09:41:08.586Z,0.70
2018-12-04T09:43:38.319Z,0.70
2018-12-04T09:46:07.860Z,0.70
2018-12-04T09:48:37.265Z,0.70
2018-12-04T09:51:07.075Z,0.80
2018-12-04T09:53:36.936Z,0.70
2018-12-04T09:56:06.388Z,0.70
2018-12-04T09:58:36.371Z,0.70
2018-12-04T10:01:06.040Z,0.70
2018-12-04T10:03:35.818Z,0.70
2018-12-04T10:06:05.090Z,0.70
2018-12-04T10:08:36.440Z,0.60
2018-12-04T10:11:07.567Z,0.60
2018-12-04T10:13:36.952Z,0.60
2018-12-04T10:16:06.461Z,0.60
2018-12-04T10:18:36.830Z,0.60
2018-12-04T10:21:07.195Z,0.60
2018-12-04T10:23:37.795Z,0.60
2018-12-04T10:26:07.959Z,0.60
2018-12-04T10:28:37.619Z,0.60
2018-12-04T10:31:10.079Z,0.60
2018-12-04T10:33:39.823Z,0.60
2018-12-04T10:36:10.079Z,0.60
2018-12-04T10:38:41.727Z,0.60
2018-12-04T10:41:11.024Z,0.60
2018-12-04T10:43:40.487Z,0.60
2018-12-04T10:46:10.891Z,0.50
2018-12-04T10:48:40.959Z,0.50
2018-12-04T10:51:10.817Z,0.50
2018-12-04T10:53:40.824Z,0.50
2018-12-04T10:56:10.496Z,0.50
2018-12-04T10:58:40.072Z,0.50
2018-12-04T11:01:15.435Z,0.50
2018-12-04T11:03:44.966Z,0.50
2018-12-04T11:06:14.577Z,0.50
2018-12-04T11:08:44.624Z,0.60
2018-12-04T11:11:13.889Z,0.60
2018-12-04T11:13:43.489Z,0.60
2018-12-04T11:16:12.789Z,0.60
2018-12-04T11:18:42.974Z,0.60
2018-12-04T11:21:12.480Z,0.50
2018-12-04T11:23:42.224Z,0.60
2018-12-04T11:26:12.290Z,0.60
2018-12-04T11:28:42.069Z,0.50
2018-12-04T11:31:11.518Z,0.50
2018-12-04T11:33:41.214Z,0.50
2018-12-04T11:36:10.801Z,0.50
2018-12-04T11:38:40.389Z,0.50
2018-12-04T11:41:09.954Z,0.50
2018-12-04T11:43:39.432Z,0.50
2018-12-04T11:46:08.686Z,0.50
2018-12-04T11:48:38.152Z,0.50
2018-12-04T11:51:07.907Z,0.40
2018-12-04T11:53:37.270Z,0.40
2018-12-04T11:56:07.861Z,0.40
2018-12-04T11:58:37.490Z,0.40
2018-12-04T12:01:07.923Z,0.30
2018-12-04T12:03:37.661Z,0.30
2018-12-04T12:06:07.302Z,0.30
2018-12-04T12:08:36.833Z,0.30
2018-12-04T12:11:06.879Z,0.30
2018-12-04T12:13:36.425Z,0.30
2018-12-04T12:16:06.156Z,0.30
2018-12-04T12:18:36.279Z,0.30
2018-12-04T12:21:06.041Z,0.30
2018-12-04T12:23:36.247Z,0.30
2018-12-04T12:26:06.085Z,0.30
2018-12-04T12:28:36.294Z,0.30
2018-12-04T12:31:05.677Z,0.20
2018-12-04T12:33:35.287Z,0.30
2018-12-04T12:36:04.640Z,0.20
2018-12-04T12:38:34.100Z,0.20
2018-12-04T12:41:05.860Z,0.20
2018-12-04T12:43:35.432Z,0.20
2018-12-04T12:46:05.356Z,0.10
2018-12-04T12:48:34.830Z,0.00
2018-12-04T12:51:05.089Z,-0.10
2018-12-04T12:53:37.605Z,-0.10
2018-12-04T12:56:09.150Z,-0.10
2018-12-04T12:58:39.194Z,-0.10
2018-12-04T13:01:10.024Z,-0.10
2018-12-04T13:03:39.760Z,-0.10
2018-12-04T13:06:09.357Z,-0.10
2018-12-04T13:08:39.693Z,0.00
2018-12-04T13:11:10.394Z,0.00
2018-12-04T13:13:40.674Z,0.00
2018-12-04T13:16:10.901Z,0.00
2018-12-04T13:18:40.730Z,0.00
2018-12-04T13:21:11.408Z,0.00
2018-12-04T13:23:40.806Z,0.00
2018-12-04T13:26:11.195Z,0.00
2018-12-04T13:28:41.568Z,0.00
2018-12-04T13:31:11.248Z,0.00
2018-12-04T13:33:40.807Z,0.00
2018-12-04T13:36:10.567Z,0.00
2018-12-04T13:38:40.200Z,-0.10
2018-12-04T13:41:10.026Z,-0.10
2018-12-04T13:43:39.666Z,-0.10
2018-12-04T13:46:09.438Z,-0.10
2018-12-04T13:48:39.621Z,-0.10
2018-12-04T13:51:09.252Z,-0.10
2018-12-04T13:53:38.852Z,-0.10
2018-12-04T13:56:08.406Z,-0.10
2018-12-04T13:58:37.915Z,-0.10
2018-12-04T14:01:07.706Z,-0.10
2018-12-04T14:06:41.950Z,-0.10
2018-12-04T14:09:11.511Z,-0.10
2018-12-04T14:11:41.130Z,-0.10
2018-12-04T14:14:10.695Z,-0.10
2018-12-04T14:16:40.819Z,-0.20
2018-12-04T14:19:10.562Z,-0.10
2018-12-04T14:21:40.153Z,-0.10
2018-12-04T14:24:09.830Z,-0.10
2018-12-04T14:26:39.170Z,-0.20
2018-12-04T14:29:09.732Z,-0.20
2018-12-04T14:31:39.107Z,-0.20
2018-12-04T14:34:09.589Z,-0.20
2018-12-04T14:36:39.301Z,-0.10
2018-12-04T14:39:09.896Z,-0.20
2018-12-04T14:41:39.492Z,-0.20
2018-12-04T14:44:09.285Z,-0.20
2018-12-04T14:46:38.727Z,-0.20
2018-12-04T14:49:08.095Z,-0.20
2018-12-04T14:51:38.193Z,-0.20
2018-12-04T14:54:07.879Z,-0.20
2018-12-04T14:56:37.342Z,-0.20
2018-12-04T14:59:07.038Z,-0.10
2018-12-04T15:01:36.379Z,-0.10
2018-12-04T15:04:06.085Z,-0.10
2018-12-04T15:06:35.646Z,-0.10
2018-12-04T15:09:05.868Z,-0.10
2018-12-04T15:11:41.999Z,-0.10
2018-12-04T15:14:12.181Z,-0.10
2018-12-04T15:16:41.653Z,-0.20
2018-12-04T15:19:11.462Z,-0.20
2018-12-04T15:21:41.243Z,-0.20
2018-12-04T15:24:10.708Z,-0.20
2018-12-04T15:26:48.454Z,-0.10
2018-12-04T15:29:18.244Z,-0.10
2018-12-04T15:31:48.003Z,-0.10
2018-12-04T15:34:17.634Z,-0.10
2018-12-04T15:36:47.126Z,-0.10
2018-12-04T15:39:16.598Z,-0.10
2018-12-04T15:41:46.587Z,-0.10
2018-12-04T15:44:16.183Z,-0.10
2018-12-04T15:46:45.758Z,-0.10
2018-12-04T15:49:15.692Z,-0.10
2018-12-04T15:51:45.187Z,0.00
2018-12-04T15:54:14.623Z,0.00
2018-12-04T15:56:45.569Z,0.00
2018-12-04T15:59:15.492Z,0.00
2018-12-04T16:01:45.505Z,0.00
2018-12-04T16:04:15.121Z,0.00
2018-12-04T16:06:46.901Z,0.00
2018-12-04T16:09:16.323Z,0.00
2018-12-04T16:11:46.286Z,0.10
2018-12-04T16:14:16.518Z,0.20
2018-12-04T16:16:47.136Z,0.20
2018-12-04T16:19:16.657Z,0.20
2018-12-04T16:21:46.345Z,0.30
2018-12-04T16:24:16.078Z,0.60
2018-12-04T16:26:46.573Z,0.70
2018-12-04T16:29:16.299Z,0.80
2018-12-04T16:31:45.862Z,0.80
2018-12-04T16:34:15.503Z,0.70
2018-12-04T16:36:45.164Z,0.70
2018-12-04T16:39:16.485Z,0.80
2018-12-04T16:41:47.519Z,0.80
2018-12-04T16:44:34.559Z,1.00
2018-12-04T16:50:28.195Z,2.50
2018-12-04T16:53:01.459Z,4.40
2018-12-04T16:55:31.489Z,4.30
2018-12-04T16:58:03.992Z,4.90
2018-12-04T17:00:36.099Z,5.80
2018-12-04T17:03:10.404Z,6.80
2018-12-04T17:05:40.064Z,7.60
2018-12-04T17:08:14.999Z,8.10
2018-12-04T17:10:50.509Z,9.20
2018-12-04T17:13:20.825Z,10.20
2018-12-04T17:18:37.665Z,10.50
2018-12-04T17:23:46.128Z,10.70
2018-12-04T17:28:53.944Z,10.30
2018-12-04T17:31:25.477Z,10.30
2018-12-04T17:33:57.162Z,10.70
2018-12-04T17:36:29.006Z,11.40
2018-12-04T17:38:58.903Z,11.20
2018-12-04T17:41:30.990Z,10.70
2018-12-04T17:44:02.903Z,10.80
2018-12-04T17:46:34.226Z,10.70
2018-12-04T17:49:08.138Z,10.40
2018-12-04T17:51:38.993Z,9.00
2018-12-04T17:54:08.606Z,8.90
2018-12-04T17:56:40.445Z,8.80
2018-12-04T17:59:11.524Z,9.40
2018-12-04T18:01:43.440Z,11.60
2018-12-04T18:04:15.790Z,13.00
2018-12-04T18:06:46.548Z,13.20
2018-12-04T18:09:17.579Z,12.40
2018-12-04T18:11:47.863Z,11.50
2018-12-04T18:14:17.880Z,13.60
2018-12-04T18:16:48.432Z,16.20
2018-12-04T18:19:18.425Z,18.50
2018-12-04T18:21:48.658Z,19.90
2018-12-04T18:24:18.655Z,21.30
2018-12-04T18:26:48.021Z,21.00
2018-12-04T18:29:17.760Z,19.70
2018-12-04T18:31:47.042Z,17.90
2018-12-04T18:34:16.637Z,15.50
2018-12-04T18:36:46.230Z,13.90
2018-12-04T18:39:16.066Z,12.80
2018-12-04T18:41:45.861Z,12.30
2018-12-04T18:44:16.686Z,10.60
2018-12-04T18:46:46.168Z,10.50
2018-12-04T18:49:15.948Z,10.10
2018-12-04T18:51:46.740Z,10.00
2018-12-04T18:54:17.197Z,9.60
2018-12-04T18:56:46.896Z,9.50
2018-12-04T18:59:16.231Z,9.50
2018-12-04T19:01:46.815Z,9.50
2018-12-04T19:04:16.533Z,9.90
2018-12-04T19:06:46.421Z,10.50
2018-12-04T19:09:16.067Z,11.10
2018-12-04T19:11:45.702Z,12.30
2018-12-04T19:14:14.883Z,13.20
2018-12-04T19:16:44.868Z,13.90
2018-12-04T19:19:14.305Z,14.60
2018-12-04T19:21:43.828Z,15.40
2018-12-04T19:24:13.376Z,16.00
2018-12-04T19:26:42.899Z,16.00
2018-12-04T19:29:12.648Z,15.80
2018-12-04T19:31:42.233Z,14.80
2018-12-04T19:34:12.083Z,14.50
2018-12-04T19:36:41.934Z,14.10
2018-12-04T19:39:11.469Z,13.90
2018-12-04T19:41:41.026Z,14.10
2018-12-04T19:44:10.666Z,15.60
2018-12-04T19:46:41.299Z,16.30
2018-12-04T19:49:11.295Z,16.20
2018-12-04T19:51:40.851Z,14.90
2018-12-04T19:54:10.712Z,14.40
2018-12-04T19:56:40.174Z,13.90
2018-12-04T19:59:09.492Z,14.30
2018-12-04T20:01:39.304Z,14.30
2018-12-04T20:04:10.281Z,13.50
2018-12-04T20:06:40.290Z,12.50
2018-12-04T20:09:10.238Z,12.00
2018-12-04T20:11:40.364Z,11.60
2018-12-04T20:14:09.919Z,11.00
2018-12-04T20:16:39.825Z,10.60
2018-12-04T20:19:11.276Z,9.90
2018-12-04T20:21:41.041Z,9.50
2018-12-04T20:24:11.209Z,9.40
2018-12-04T20:26:41.225Z,9.30
2018-12-04T20:29:10.761Z,9.50
2018-12-04T20:31:40.937Z,9.90
2018-12-04T20:34:10.310Z,10.20
2018-12-04T20:36:40.110Z,9.80
2018-12-04T20:39:10.985Z,9.30
2018-12-04T20:41:41.410Z,9.20
2018-12-04T20:44:11.511Z,9.60
2018-12-04T20:46:42.599Z,10.60
2018-12-04T20:49:13.246Z,11.60
2018-12-04T20:51:43.381Z,11.80
2018-12-04T20:54:12.711Z,11.00
2018-12-04T20:56:42.459Z,10.50
2018-12-04T20:59:11.983Z,9.90
2018-12-04T21:01:41.735Z,9.30
2018-12-04T21:04:11.142Z,8.90
2018-12-04T21:06:40.567Z,8.80
2018-12-04T21:09:10.249Z,9.00
2018-12-04T21:11:40.214Z,9.00
2018-12-04T21:14:10.109Z,9.30
2018-12-04T21:16:42.182Z,9.30
2018-12-04T21:19:11.985Z,8.90
2018-12-04T21:21:41.526Z,8.70
2018-12-04T21:24:12.366Z,8.50
2018-12-04T21:26:42.042Z,8.40
2018-12-04T21:29:18.029Z,8.20
2018-12-04T21:31:55.230Z,7.90
2018-12-04T21:34:30.497Z,7.90
2018-12-04T21:37:06.469Z,7.80
2018-12-04T21:39:38.573Z,7.90
2018-12-04T21:42:14.888Z,7.90
2018-12-04T21:44:49.753Z,7.90
2018-12-04T21:47:25.437Z,7.80
2018-12-04T21:49:54.974Z,7.60
2018-12-04T21:52:24.280Z,7.50
2018-12-04T21:54:54.009Z,7.30
2018-12-04T21:57:24.011Z,7.10
2018-12-04T21:59:53.554Z,7.00
2018-12-04T22:02:23.033Z,6.90
2018-12-04T22:04:52.500Z,7.00
2018-12-04T22:07:21.910Z,7.00
2018-12-04T22:09:51.453Z,6.90
2018-12-04T22:12:21.063Z,6.80
2018-12-04T22:14:50.344Z,6.70
2018-12-04T22:17:20.531Z,6.60
2018-12-04T22:19:51.253Z,6.70
2018-12-04T22:22:20.632Z,6.70
2018-12-04T22:24:50.437Z,6.60
2018-12-04T22:27:20.370Z,6.60
2018-12-04T22:29:51.488Z,6.50
2018-12-04T22:32:21.243Z,6.50
2018-12-04T22:34:51.428Z,6.60
2018-12-04T22:37:20.893Z,6.50
2018-12-04T22:39:50.437Z,6.60
2018-12-04T22:42:19.886Z,6.60
2018-12-04T22:44:49.477Z,6.60
2018-12-04T22:47:19.080Z,6.50
2018-12-04T22:49:48.806Z,6.50
2018-12-04T22:52:18.311Z,6.40
2018-12-04T22:54:47.924Z,6.50
2018-12-04T22:57:17.664Z,6.40
2018-12-04T22:59:47.859Z,6.30
2018-12-04T23:02:17.541Z,6.30
2018-12-04T23:04:47.034Z,6.10
2018-12-04T23:07:16.669Z,6.10
2018-12-04T23:09:46.249Z,6.00
2018-12-04T23:12:15.754Z,6.00
2018-12-04T23:14:45.998Z,5.90
2018-12-04T23:17:15.623Z,5.90
2018-12-04T23:19:45.211Z,5.90
2018-12-04T23:22:14.655Z,5.90
2018-12-04T23:24:44.800Z,6.00
2018-12-04T23:27:15.081Z,5.90
2018-12-04T23:29:44.922Z,5.90
2018-12-04T23:32:14.279Z,5.90
2018-12-04T23:34:43.905Z,5.90
2018-12-04T23:37:13.276Z,5.80
2018-12-04T23:39:42.770Z,5.80
2018-12-04T23:42:12.992Z,5.70
2018-12-04T23:44:42.767Z,5.60
2018-12-04T23:47:13.287Z,5.50
2018-12-04T23:49:43.310Z,5.50
2018-12-04T23:52:12.526Z,5.50
2018-12-04T23:54:41.742Z,5.50
2018-12-04T23:57:11.327Z,5.40
2018-12-04T23:59:40.602Z,5.30
